Station: Gelantipy  

  Atmospheric Gas Attenuation - ITU Rec 676-11   ----------------- dB/100km -----------------
Date Time Temp RH % AH g/m3 Dew Point Wind Direction Speed kph Gust kph Barometer mB Rainfall Since 9am 24GHz 47GHz 76GHz 122GHz 134GHz 241GHz
08/05 12:30 11.2 78 7.91 7.5 22 35 1017.5 0 18.2 25.7 38.5 100.8 92.8 318.4
08/05 12:20 10.8 79 7.81 7.3 22 30 1017.6 0 18.0 25.6 38.3 100.3 91.9 315.3
08/05 12:10 10.6 77 7.52 6.7 35 43 1017.7 0 17.4 25.2 37.2 97.4 88.3 302.6
08/05 12:00 10.7 76 7.47 6.6 28 44 1017.7 0 17.3 25.1 36.9 96.7 87.5 299.9
08/05 11:50 10.8 78 7.71 7.1 22 30 1017.7 0 17.8 25.5 37.9 99.2 90.6 310.7
08/05 11:40 10.8 77 7.61 6.9 26 37 1017.7 0 17.6 25.3 37.5 98.1 89.3 306.0
08/05 11:30 11 79 7.91 7.5 33 48 1017.8 0 18.2 25.8 38.6 101.1 93.0 319.3
08/05 11:20 10.5 77 7.47 6.6 33 46 1017.8 0 17.3 25.2 37.0 97.0 87.7 300.7
08/05 11:10 10.3 80 7.66 7 32 43 1017.8 0 17.7 25.5 37.9 99.3 90.5 310.3
08/05 11:00 10.3 80 7.66 7 22 37 1017.8 0 17.7 25.5 37.9 99.3 90.5 310.3
08/05 10:50 10.1 82 7.76 7.2 19 26 1017.8 0 18.0 25.8 38.4 100.7 92.1 315.9
08/05 10:40 10.3 78 7.47 6.6 20 24 1017.8 0 17.3 25.2 37.1 97.2 88.0 301.4
08/05 10:30 10.4 78 7.52 6.7 33 61 1017.6 0 17.4 25.3 37.3 97.6 88.5 303.3
08/05 10:20 10.2 79 7.52 6.7 26 32 1017.6 0 17.4 25.3 37.4 97.9 88.7 304.1
08/05 10:10 9.9 77 7.19 6.1 37 46 1017.3 0 16.7 24.9 36.2 94.7 84.7 289.8
08/05 10:00 9.8 79 7.33 6.3 32 50 1017.1 0 17.0 25.1 36.8 96.3 86.6 296.6
08/05 09:50 10 79 7.43 6.5 24 30 1016.8 0 17.3 25.2 37.1 97.1 87.7 300.5
08/05 09:40 9.7 82 7.56 6.8 28 33 1016.8 0 17.5 25.5 37.7 98.9 89.8 307.7
08/05 09:30 9.2 83 7.41 6.5 33 57 1016.7 0 17.2 25.4 37.4 97.8 88.3 302.6
08/05 09:20 9.4 84 7.6 6.8 33 41 1016.8 0 17.6 25.7 38.1 99.7 90.7 310.8
08/05 09:10 9 85 7.5 6.6 26 33 1016.8 0 17.5 25.6 37.8 99.1 89.8 307.7
08/05 09:00 8.6 90 7.74 7.1 33 46 1016.9 0 18.0 26.1 39.0 102.3 93.6 320.8
08/05 08:50 8.1 94 7.82 7.2 28 37 1016.7 0.8 18.2 26.4 39.6 103.8 95.3 326.7
08/05 08:40 7.8 94 7.67 6.9 26 30 1016.8 0.8 17.9 26.3 39.1 102.5 93.6 320.7
08/05 08:30 7.7 93 7.54 6.6 26 35 1016.6 0.8 17.6 26.1 38.6 101.2 91.9 314.7
08/05 08:20 7.7 93 7.54 6.6 26 32 1016.5 0.8 17.6 26.1 38.6 101.2 91.8 314.7
08/05 08:10 7.9 90 7.4 6.4 24 28 1016.6 0.8 17.3 25.8 37.9 99.4 89.7 307.2
08/05 08:00 8.3 85 7.17 5.9 26 39 1016.5 0.8 16.8 25.3 36.8 96.3 86.1 294.6
08/05 07:50 8.3 83 7 5.6 28 32 1016.1 0.8 16.4 25.0 36.1 94.4 83.8 286.5
08/05 07:40 8.7 81 7.01 5.6 22 28 1016.1 0.8 16.4 24.9 35.9 94.0 83.5 285.5
08/05 07:30 8.8 79 6.88 5.4 32 50 1015.8 0.8 16.1 24.6 35.4 92.5 81.6 279.0
08/05 07:20 8.7 80 6.92 5.4 30 35 1015.9 0.8 16.2 24.7 35.6 93.1 82.3 281.3
08/05 07:10 8.8 77 6.7 5 24 30 1015.6 0.8 15.7 24.3 34.6 90.6 79.2 270.6
08/05 07:00 9 76 6.7 5 26 43 1015.4 0.8 15.7 24.3 34.5 90.3 79.0 269.9
08/05 06:50 9 74 6.53 4.6 30 33 1015.5 0.8 15.4 24.0 33.9 88.5 76.8 262.1
08/05 06:40 8.9 74 6.48 4.5 22 26 1015.3 0.8 15.3 23.9 33.7 88.1 76.2 260.1
08/05 06:30 8.8 75 6.53 4.6 22 33 1015.3 0.8 15.4 24.0 33.9 88.7 77.0 262.7
08/05 06:20 8.7 77 6.66 4.9 22 24 1015.3 0.8 15.7 24.3 34.5 90.2 78.8 269.0
08/05 06:10 8.9 78 6.84 5.3 28 39 1015.4 0.8 16.0 24.5 35.1 91.9 81.0 276.7
08/05 06:00 8.6 78 6.7 5 30 48 1015.4 0.8 15.7 24.4 34.7 90.8 79.4 271.3
08/05 05:50 9.2 72 6.43 4.4 24 28 1015.3 0.8 15.1 23.8 33.4 87.2 75.3 256.9
08/05 05:40 9.2 72 6.43 4.4 28 32 1015.2 0.8 15.1 23.8 33.4 87.2 75.3 256.8
08/05 05:30 9.2 71 6.34 4.2 24 32 1015.1 0.8 15.0 23.6 33.0 86.3 74.1 252.7
08/05 05:20 9.1 71 6.3 4.1 24 30 1015 0.8 14.9 23.6 32.9 85.9 73.7 251.2
08/05 05:10 9.1 72 6.39 4.3 22 26 1015 0.8 15.1 23.7 33.2 86.9 74.8 255.3
08/05 05:00 9.1 72 6.39 4.3 26 33 1014.7 0.8 15.1 23.7 33.2 86.8 74.8 255.2
08/05 04:50 8.9 72 6.31 4.1 28 33 1014.8 0.8 14.9 23.6 33.0 86.2 74.0 252.3
08/05 04:40 8.8 73 6.36 4.2 22 24 1014.6 0.8 15.0 23.7 33.2 86.9 74.7 254.8
08/05 04:30 8.7 73 6.32 4.1 22 35 1014.6 0.8 14.9 23.7 33.1 86.5 74.3 253.3
08/05 04:20 8.5 74 6.32 4.1 26 30 1014.5 0.8 14.9 23.8 33.2 86.8 74.5 253.9
08/05 04:10 8.5 75 6.41 4.3 24 33 1014.5 0.8 15.1 23.9 33.6 87.7 75.6 258.0
08/05 04:00 8.3 77 6.49 4.5 22 33 1014.6 0.8 15.3 24.1 34.0 88.8 76.9 262.4
08/05 03:50 8.2 77 6.45 4.4 24 30 1014.8 0.8 15.2 24.0 33.9 88.5 76.5 260.9
08/05 03:40 8.3 77 6.49 4.5 26 32 1014.8 0.8 15.3 24.1 34.0 88.8 76.9 262.4
08/05 03:30 8.5 74 6.32 4.1 24 35 1014.9 0.8 14.9 23.8 33.2 86.8 74.5 254.0
08/05 03:20 8.4 74 6.28 4 20 24 1015.1 0.8 14.9 23.7 33.1 86.5 74.1 252.6
08/05 03:10 8.4 74 6.28 4 22 26 1015 0.8 14.9 23.7 33.1 86.5 74.1 252.5
08/05 03:00 8.1 75 6.24 3.9 20 26 1015.1 0.8 14.8 23.8 33.1 86.4 73.8 251.7
08/05 02:50 8 74 6.12 3.7 15 19 1015.2 0.8 14.5 23.6 32.6 85.3 72.4 246.5
08/05 02:40 7.6 75 6.04 3.5 19 22 1015.3 0.8 14.4 23.6 32.5 84.9 71.7 244.1
08/05 02:30 7.6 74 5.96 3.3 20 30 1015.3 0.8 14.2 23.4 32.2 84.0 70.7 240.5
08/05 02:20 7.6 75 6.04 3.5 24 28 1015.3 0.8 14.4 23.6 32.5 84.9 71.7 244.1
08/05 02:10 7.4 75 5.97 3.3 20 24 1015.3 0.8 14.2 23.5 32.3 84.3 71.0 241.6
08/05 02:00 7.6 74 5.96 3.3 26 37 1015.3 0.8 14.2 23.4 32.2 84.0 70.7 240.5
08/05 01:50 7.5 74 5.93 3.2 22 30 1015.4 0.8 14.1 23.4 32.1 83.8 70.4 239.5
08/05 01:40 7.6 73 5.88 3.1 30 37 1015.5 0.8 14.0 23.3 31.9 83.2 69.7 236.9
08/05 01:30 7.4 74 5.89 3.1 28 39 1015.5 0.8 14.1 23.4 32.0 83.5 70.0 238.0
08/05 01:20 7.1 74 5.77 2.8 26 28 1015.5 0.8 13.8 23.3 31.6 82.6 68.7 233.4
08/05 01:10 7 74 5.74 2.7 28 35 1015.6 0.8 13.7 23.3 31.6 82.4 68.4 232.3
08/05 01:00 7.1 75 5.85 3 28 37 1015.7 0.8 14.0 23.4 32.0 83.4 69.7 237.1
08/05 00:50 6.8 75 5.74 2.7 26 33 1015.7 0.8 13.8 23.3 31.7 82.6 68.6 232.9
08/05 00:40 6.8 75 5.74 2.7 28 35 1016 0.8 13.8 23.3 31.7 82.6 68.6 233.0
08/05 00:30 6.4 76 5.67 2.5 24 39 1016.2 0.8 13.6 23.3 31.6 82.3 68.0 231.0
08/05 00:20 6.5 75 5.63 2.4 20 28 1016.2 0.8 13.5 23.2 31.4 81.8 67.4 228.9
08/05 00:10 6.3 75 5.55 2.2 30 35 1016.1 0.8 13.4 23.2 31.1 81.1 66.5 225.8
08/05 00:00 6.2 75 5.52 2.1 26 33 1016.3 0.8 13.3 23.1 31.0 80.9 66.3 224.8
07/05 23:50 6.3 75 5.55 2.2 26 32 1016.6 0.8 13.4 23.2 31.1 81.2 66.6 225.9
07/05 23:40 6.1 76 5.56 2.2 20 24 1016.6 0.8 13.4 23.2 31.3 81.5 66.9 226.9
07/05 23:30 6 75 5.45 1.9 20 35 1016.7 0.8 13.2 23.1 30.9 80.4 65.5 222.2
07/05 23:20 5.6 77 5.45 1.9 17 19 1016.7 0.8 13.2 23.2 31.0 80.9 65.9 223.3
07/05 23:10 5.6 77 5.45 1.9 24 28 1016.8 0.8 13.2 23.2 31.0 80.9 65.9 223.4
07/05 23:00 5.4 78 5.45 1.9 20 28 1016.9 0.8 13.2 23.3 31.1 81.1 66.1 223.9
07/05 22:50 5.2 78 5.37 1.7 20 28 1016.9 0.8 13.0 23.2 30.9 80.4 65.2 220.8
07/05 22:40 5.2 78 5.37 1.7 26 30 1017.1 0.8 13.0 23.2 30.9 80.5 65.2 220.9
07/05 22:30 5 79 5.37 1.7 17 30 1017.1 0.8 13.0 23.2 30.9 80.7 65.4 221.4
07/05 22:20 4.8 81 5.44 1.8 19 24 1017.4 0.8 13.2 23.4 31.3 81.6 66.5 225.3
07/05 22:10 4.8 82 5.5 2 22 26 1017.5 0.8 13.3 23.5 31.6 82.3 67.3 228.1
07/05 22:00 4.5 84 5.53 2 13 20 1017.6 0.8 13.4 23.7 31.8 82.9 67.9 230.4
07/05 21:50 4.3 87 5.65 2.3 15 20 1017.8 0.8 13.7 23.9 32.4 84.5 69.7 236.6
07/05 21:40 4.1 88 5.64 2.3 11 15 1017.9 0.8 13.6 24.0 32.4 84.6 69.8 236.8
07/05 21:30 4.1 89 5.7 2.5 15 22 1018 0.8 13.8 24.1 32.7 85.2 70.6 239.6
07/05 21:20 4.1 90 5.77 2.6 20 20 1018 0.8 13.9 24.2 33.0 86.0 71.5 243.0
07/05 21:10 4 91 5.79 2.7 22 28 1018.2 0.8 14.0 24.2 33.1 86.4 71.9 244.3
07/05 21:00 3.9 92 5.82 2.7 22 33 1018.2 0.8 14.0 24.3 33.3 86.8 72.4 246.0
07/05 20:50 3.8 92 5.78 2.6 20 26 1018.4 0.6 14.0 24.3 33.1 86.5 72.0 244.5
07/05 20:40 3.7 92 5.74 2.5 22 24 1018.4 0.6 13.9 24.2 33.0 86.2 71.5 242.9
07/05 20:30 3.7 92 5.74 2.5 22 35 1018.2 0.6 13.9 24.2 33.0 86.1 71.5 242.8
07/05 20:20 3.5 94 5.79 2.6 15 17 1018.3 0.6 14.0 24.4 33.3 86.9 72.4 245.9
07/05 20:10 3.4 94 5.75 2.5 20 22 1018.3 0.6 13.9 24.3 33.2 86.6 71.9 244.3
07/05 20:00 3.5 94 5.79 2.6 24 35 1018.2 0.6 14.0 24.4 33.3 86.9 72.4 245.8

Last Refresh: 08-May-2026 12:08:15

Bureau of Meteorology